»·PEaware :: RNGR824 KNGP-KNGP

RNGR824 :: KNGP-KNGP

FLIGHT INFORMATION

Flight Status: Arrived
Operator: Unknown
More flights by this operator :: More flights under this callsign
Pilot: USN Avenger (31125)
Aircraft: BEECH AIRCRAFT T-6A TEXAN
(TEX2)
More flights by this aircraft type
Origin: KNGP Corpus Christi NAS/Truax
United States
Destination: KNGP Corpus Christi NAS/Truax
United States
More flights between these airports :: More routes between these airports
Route:
File this flight plan on PilotEdge
Remarks:
Altitude:
(Current/Filed)
5,500ft
Speed:
(Current/Filed)
240kts
Departed: 14-Nov-23 10:22 AM
Arrived: 14-Nov-23 11:00 AM
Distance/Time
Traveled:
4nm/0:38
Distance/Time
To Go:
Arrived

Flight Plot

Page will automatically refresh every two minutes.

Flight plan parsing failed; only flown route is shown


Map Options




Map Legend


Flown Route
Filed Route
Departure Airport
Arrival Airport
Navaid (VOR, NDB)
Fix

Horizontal Profiles

Position Reports

Time Latitude Longitude Heading Altitude Ground
Speed
14-Nov-23 09:58 27.672072 -97.274010 159 17ft 99kts
14-Nov-23 09:59 27.699439 -97.286470 225 22ft 0kts
14-Nov-23 10:00 27.698689 -97.284389 183 23ft 0kts
14-Nov-23 10:01 27.698689 -97.284389 183 23ft 0kts
14-Nov-23 10:02 27.698689 -97.284389 183 23ft 0kts
14-Nov-23 10:03 27.698689 -97.284389 183 23ft 0kts
14-Nov-23 10:04 27.698689 -97.284389 183 23ft 0kts
14-Nov-23 10:05 27.698684 -97.284389 183 22ft 1kts
14-Nov-23 10:06 27.698684 -97.284389 183 22ft 1kts
14-Nov-23 10:07 27.698684 -97.284389 183 22ft 1kts
14-Nov-23 10:08 27.698684 -97.284389 183 22ft 1kts
14-Nov-23 10:09 27.698684 -97.284389 183 22ft 1kts
14-Nov-23 10:10 27.698684 -97.284389 183 22ft 1kts
14-Nov-23 10:11 27.698684 -97.284389 183 22ft 1kts
14-Nov-23 10:12 27.698684 -97.284389 183 22ft 1kts
14-Nov-23 10:13 27.698660 -97.284391 184 22ft 0kts
14-Nov-23 10:14 27.698658 -97.284391 184 22ft 0kts
14-Nov-23 10:15 27.698016 -97.285050 275 22ft 11kts
14-Nov-23 10:16 27.699175 -97.286800 224 22ft 0kts
14-Nov-23 10:17 27.698299 -97.287792 225 22ft 18kts
14-Nov-23 10:18 27.695784 -97.290969 229 22ft 0kts
14-Nov-23 10:19 27.695783 -97.290971 229 22ft 0kts
14-Nov-23 10:20 27.694808 -97.291279 131 22ft 0kts
14-Nov-23 10:21 27.674142 -97.268075 136 402ft 190kts
14-Nov-23 10:22 27.639202 -97.219341 130 1554ft 202kts
14-Nov-23 10:23 27.592884 -97.190909 201 3754ft 202kts
14-Nov-23 10:24 27.541077 -97.215514 200 5612ft 227kts
14-Nov-23 10:25 27.475939 -97.241003 198 5567ft 255kts
14-Nov-23 10:26 27.407859 -97.262808 192 5610ft 258kts
14-Nov-23 10:27 27.343519 -97.276161 197 7369ft 241kts
14-Nov-23 10:28 27.389150 -97.295146 289 8558ft 224kts
14-Nov-23 10:29 27.357958 -97.341506 307 6218ft 233kts
14-Nov-23 10:30 27.411058 -97.340330 1 2270ft 199kts
14-Nov-23 10:31 27.454324 -97.340397 348 866ft 159kts
14-Nov-23 10:32 27.503322 -97.352280 35 1244ft 215kts
14-Nov-23 10:33 27.555822 -97.324959 14 1353ft 204kts
14-Nov-23 10:34 27.612533 -97.316814 0 969ft 209kts
14-Nov-23 10:35 27.643089 -97.331933 185 692ft 125kts
14-Nov-23 10:36 27.635005 -97.331524 183 600ft 158kts
14-Nov-23 10:37 27.645081 -97.347033 55 1013ft 240kts
14-Nov-23 10:38 27.615480 -97.298871 179 989ft 203kts
14-Nov-23 10:39 27.614731 -97.330312 313 751ft 131kts
14-Nov-23 10:40 27.639658 -97.325097 72 286ft 127kts
14-Nov-23 10:41 27.619473 -97.293583 134 535ft 133kts
14-Nov-23 10:42 27.605136 -97.312860 303 471ft 125kts
14-Nov-23 10:43 27.629127 -97.336112 12 850ft 123kts
14-Nov-23 10:44 27.635126 -97.310823 134 30ft 99kts
14-Nov-23 10:45 27.613898 -97.306015 289 638ft 124kts
14-Nov-23 10:46 27.638849 -97.330498 340 718ft 123kts
14-Nov-23 10:47 27.632620 -97.308028 135 196ft 117kts
14-Nov-23 10:48 27.626742 -97.323186 314 907ft 116kts
14-Nov-23 10:49 27.644554 -97.322042 120 240ft 117kts
14-Nov-23 10:50 27.621823 -97.297878 170 495ft 128kts
14-Nov-23 10:51 27.623196 -97.326452 316 1095ft 110kts
14-Nov-23 10:52 27.647511 -97.330562 81 449ft 102kts
14-Nov-23 10:53 27.630665 -97.305710 133 251ft 117kts
14-Nov-23 10:54 27.624663 -97.320230 315 958ft 113kts
14-Nov-23 10:55 27.648486 -97.329139 100 332ft 125kts
14-Nov-23 10:56 27.627757 -97.302946 141 328ft 123kts
14-Nov-23 10:57 27.625990 -97.322549 311 1012ft 120kts
14-Nov-23 10:58 27.647006 -97.325802 97 261ft 101kts
14-Nov-23 10:59 27.633438 -97.309426 159 28ft 0kts
14-Nov-23 11:00 27.633437 -97.309425 159 28ft 0kts
14-Nov-23 11:01 27.633436 -97.309425 159 28ft 0kts
14-Nov-23 11:02 27.633436 -97.309425 159 28ft 0kts
14-Nov-23 11:03 27.633436 -97.309425 159 28ft 0kts
14-Nov-23 11:04 27.633436 -97.309425 159 28ft 0kts
14-Nov-23 11:05 27.633436 -97.309425 159 28ft 0kts
14-Nov-23 11:06 27.633436 -97.309425 159 28ft 0kts
14-Nov-23 11:07 27.633436 -97.309425 159 28ft 0kts
14-Nov-23 11:08 27.633436 -97.309425 159 28ft 0kts
14-Nov-23 11:09 27.633436 -97.309425 159 28ft 0kts
14-Nov-23 11:10 27.633436 -97.309425 159 28ft 0kts

Navigation Log

Ident Type
Flight plan parsing failed, navigation log unavailable